createdAt,value
2017-10-30T00:01:07.718Z,100657.94
2017-10-30T00:03:35.639Z,100652.09
2017-10-30T00:06:03.297Z,100666.55
2017-10-30T00:08:30.931Z,100666.69
2017-10-30T00:10:58.560Z,100657.89
2017-10-30T00:13:26.213Z,100661.12
2017-10-30T00:15:53.793Z,100662.98
2017-10-30T00:18:21.451Z,100668.03
2017-10-30T00:20:49.086Z,100670.06
2017-10-30T00:23:16.693Z,100671.09
2017-10-30T00:25:44.319Z,100681.73
2017-10-30T00:28:11.905Z,100679.26
2017-10-30T00:30:39.593Z,100679.11
2017-10-30T00:33:07.211Z,100690.97
2017-10-30T00:35:34.800Z,100690.45
2017-10-30T00:38:02.432Z,100695.73
2017-10-30T00:40:30.089Z,100700.55
2017-10-30T00:42:58.147Z,100703.56
2017-10-30T00:45:25.741Z,100704.68
2017-10-30T00:47:53.359Z,100699.16
2017-10-30T00:50:21.242Z,100700.53
2017-10-30T00:52:48.823Z,100705.65
2017-10-30T00:55:16.454Z,100723.80
2017-10-30T00:57:44.089Z,100718.77
2017-10-30T01:00:11.744Z,100724.78
2017-10-30T01:02:39.373Z,100711.84
2017-10-30T01:05:06.990Z,100714.72
2017-10-30T01:07:34.654Z,100720.40
2017-10-30T01:10:02.546Z,100711.72
2017-10-30T01:12:30.175Z,100717.52
2017-10-30T01:14:57.797Z,100724.01
2017-10-30T01:17:25.407Z,100732.38
2017-10-30T01:19:53.067Z,100726.72
2017-10-30T01:22:21.573Z,100727.16
2017-10-30T01:24:49.210Z,100726.05
2017-10-30T01:27:16.832Z,100740.27
2017-10-30T01:29:44.435Z,100728.06
2017-10-30T01:32:12.066Z,100736.52
2017-10-30T01:34:39.679Z,100740.55
2017-10-30T01:37:07.949Z,100740.35
2017-10-30T01:39:35.604Z,100737.36
2017-10-30T01:42:03.201Z,100743.42
2017-10-30T01:44:31.158Z,100743.21
2017-10-30T01:46:59.021Z,100750.80
2017-10-30T01:49:26.890Z,100750.59
2017-10-30T01:51:54.520Z,100747.39
2017-10-30T01:54:22.136Z,100758.27
2017-10-30T01:56:49.781Z,100756.32
2017-10-30T01:59:17.648Z,100751.02
2017-10-30T02:01:45.245Z,100753.38
2017-10-30T02:04:12.946Z,100752.69
2017-10-30T02:06:40.655Z,100761.35
2017-10-30T02:09:08.297Z,100761.16
2017-10-30T02:11:35.916Z,100759.32
2017-10-30T02:14:03.529Z,100766.88
2017-10-30T02:16:31.162Z,100770.51
2017-10-30T02:18:58.746Z,100771.91
2017-10-30T02:21:26.386Z,100769.87
2017-10-30T02:23:53.976Z,100780.55
2017-10-30T02:26:21.604Z,100779.84
2017-10-30T02:28:49.235Z,100784.24
2017-10-30T02:31:16.828Z,100785.77
2017-10-30T02:33:44.456Z,100782.28
2017-10-30T02:36:12.072Z,100781.44
2017-10-30T02:38:39.682Z,100793.30
2017-10-30T02:41:07.314Z,100792.66
2017-10-30T02:43:34.913Z,100798.14
2017-10-30T02:46:02.510Z,100800.78
2017-10-30T02:48:30.153Z,100799.80
2017-10-30T02:50:57.738Z,100808.03
2017-10-30T02:53:25.620Z,100815.35
2017-10-30T02:55:53.244Z,100821.22
2017-10-30T02:58:20.826Z,100826.66
2017-10-30T03:00:48.485Z,100820.17
2017-10-30T03:03:16.123Z,100819.41
2017-10-30T03:05:43.744Z,100814.53
2017-10-30T03:08:11.456Z,100824.65
2017-10-30T03:10:39.133Z,100825.06
2017-10-30T03:13:06.787Z,100835.59
2017-10-30T03:15:35.088Z,100833.97
2017-10-30T03:18:02.676Z,100833.27
2017-10-30T03:20:30.304Z,100836.20
2017-10-30T03:22:57.940Z,100842.34
2017-10-30T03:25:25.577Z,100845.88
2017-10-30T03:27:53.213Z,100850.30
2017-10-30T03:30:20.867Z,100864.95
2017-10-30T03:32:48.483Z,100861.47
2017-10-30T03:35:16.090Z,100863.67
2017-10-30T03:37:43.729Z,100854.25
2017-10-30T03:40:11.333Z,100865.72
2017-10-30T03:42:38.925Z,100861.03
2017-10-30T03:45:06.562Z,100872.72
2017-10-30T03:47:34.172Z,100885.91
2017-10-30T03:50:02.282Z,100890.18
2017-10-30T03:52:29.882Z,100878.80
2017-10-30T03:54:57.482Z,100885.14
2017-10-30T03:57:25.104Z,100869.93
2017-10-30T03:59:52.684Z,100871.28
2017-10-30T04:02:20.344Z,100876.69
2017-10-30T04:04:48.364Z,100877.25
2017-10-30T04:07:15.966Z,100873.55
2017-10-30T04:09:43.902Z,100875.58
2017-10-30T04:12:11.494Z,100885.20
2017-10-30T04:14:39.172Z,100887.61
2017-10-30T04:17:06.777Z,100897.17
2017-10-30T04:19:34.384Z,100897.33
2017-10-30T04:22:02.044Z,100899.62
2017-10-30T04:24:29.976Z,100914.15
2017-10-30T04:26:57.617Z,100918.98
2017-10-30T04:29:25.217Z,100921.29
2017-10-30T04:31:52.804Z,100926.83
2017-10-30T04:34:20.452Z,100932.29
2017-10-30T04:36:48.055Z,100939.72
2017-10-30T04:39:15.697Z,100928.97
2017-10-30T04:41:43.314Z,100946.72
2017-10-30T04:44:11.283Z,100942.39
2017-10-30T04:46:38.906Z,100942.45
2017-10-30T04:49:06.502Z,100942.88
2017-10-30T04:51:34.117Z,100946.23
2017-10-30T04:54:01.778Z,100946.13
2017-10-30T04:56:29.705Z,100950.34
2017-10-30T04:58:57.576Z,100946.38
2017-10-30T05:01:25.165Z,100945.65
2017-10-30T05:03:52.805Z,100950.53
2017-10-30T05:06:20.675Z,100958.73
2017-10-30T05:08:48.292Z,100963.02
2017-10-30T05:11:16.198Z,100968.11
2017-10-30T05:13:43.788Z,100974.47
2017-10-30T05:16:11.433Z,100969.44
2017-10-30T05:18:39.026Z,100980.47
2017-10-30T05:21:06.640Z,100982.77
2017-10-30T05:23:34.267Z,100982.77
2017-10-30T05:26:01.877Z,100973.73
2017-10-30T05:28:29.520Z,100976.49
2017-10-30T05:30:57.097Z,100974.98
2017-10-30T05:33:24.756Z,100975.27
2017-10-30T05:35:52.391Z,100981.27
2017-10-30T05:38:20.277Z,100987.61
2017-10-30T05:40:47.942Z,100988.69
2017-10-30T05:43:15.535Z,101002.02
2017-10-30T05:45:43.169Z,100990.39
2017-10-30T05:48:10.784Z,101006.75
2017-10-30T05:50:38.393Z,101018.27
2017-10-30T05:53:06.359Z,101020.89
2017-10-30T05:55:33.970Z,101016.55
2017-10-30T05:58:01.623Z,101030.52
2017-10-30T06:00:29.245Z,101023.77
2017-10-30T06:02:56.900Z,101021.86
2017-10-30T06:05:24.544Z,101024.30
2017-10-30T06:07:52.193Z,101028.12
2017-10-30T06:10:19.788Z,101042.66
2017-10-30T06:12:47.433Z,101042.02
2017-10-30T06:15:15.010Z,101042.09
2017-10-30T06:17:42.664Z,101047.85
2017-10-30T06:20:10.254Z,101065.30
2017-10-30T06:22:37.862Z,101063.48
2017-10-30T06:25:05.521Z,101068.85
2017-10-30T06:27:33.217Z,101067.39
2017-10-30T06:30:01.100Z,101072.55
2017-10-30T06:32:28.710Z,101082.92
2017-10-30T06:34:56.301Z,101094.84
2017-10-30T06:37:23.927Z,101098.13
2017-10-30T06:39:51.853Z,101093.19
2017-10-30T06:42:19.488Z,101104.76
2017-10-30T06:44:47.116Z,101103.09
2017-10-30T06:47:14.948Z,101107.98
2017-10-30T06:49:42.584Z,101112.22
2017-10-30T06:52:10.185Z,101114.64
2017-10-30T06:54:37.820Z,101123.22
2017-10-30T06:57:05.406Z,101124.97
2017-10-30T06:59:33.022Z,101126.00
2017-10-30T07:02:00.665Z,101132.98
2017-10-30T07:04:28.292Z,101138.33
2017-10-30T07:06:56.260Z,101139.84
2017-10-30T07:09:23.842Z,101143.53
2017-10-30T07:11:51.434Z,101147.62
2017-10-30T07:14:19.150Z,101158.36
2017-10-30T07:16:46.823Z,101167.92
2017-10-30T07:19:15.510Z,101170.62
2017-10-30T07:21:43.104Z,101177.11
2017-10-30T07:24:10.725Z,101169.16
2017-10-30T07:26:38.345Z,101178.52
2017-10-30T07:29:05.928Z,101184.59
2017-10-30T07:31:33.560Z,101176.96
2017-10-30T07:34:01.581Z,101184.78
2017-10-30T07:36:29.181Z,101191.59
2017-10-30T07:38:56.824Z,101193.84
2017-10-30T07:41:24.434Z,101202.08
2017-10-30T07:43:52.073Z,101203.52
2017-10-30T07:46:19.721Z,101214.77
2017-10-30T07:48:47.306Z,101218.52
2017-10-30T07:51:14.942Z,101208.51
2017-10-30T07:53:42.605Z,101226.17
2017-10-30T07:56:10.237Z,101230.34
2017-10-30T07:58:37.853Z,101232.53
2017-10-30T08:01:05.768Z,101230.70
2017-10-30T08:03:33.733Z,101243.27
2017-10-30T08:06:01.472Z,101242.64
2017-10-30T08:08:29.220Z,101264.41
2017-10-30T08:10:56.865Z,101255.69
2017-10-30T08:13:24.809Z,101252.30
2017-10-30T08:15:52.470Z,101256.54
2017-10-30T08:18:20.562Z,101260.17
2017-10-30T08:20:48.212Z,101265.41
2017-10-30T08:23:15.829Z,101259.47
2017-10-30T08:25:43.766Z,101271.95
2017-10-30T08:28:11.397Z,101262.45
2017-10-30T08:30:39.034Z,101273.98
2017-10-30T08:33:07.023Z,101277.31
2017-10-30T08:35:35.229Z,101280.03
2017-10-30T08:38:02.878Z,101281.41
2017-10-30T08:40:30.531Z,101289.27
2017-10-30T08:42:58.126Z,101286.16
2017-10-30T08:45:25.803Z,101293.63
2017-10-30T08:47:53.406Z,101297.09
2017-10-30T08:50:21.196Z,101306.89
2017-10-30T08:52:49.145Z,101302.06
2017-10-30T08:55:16.721Z,101306.67
2017-10-30T08:57:44.384Z,101306.86
2017-10-30T09:00:12.050Z,101315.77
2017-10-30T09:02:39.915Z,101308.50
2017-10-30T09:05:07.575Z,101317.56
2017-10-30T09:07:35.545Z,101316.30
2017-10-30T09:10:09.368Z,101326.38
2017-10-30T09:12:37.039Z,101325.15
2017-10-30T09:15:04.642Z,101328.89
2017-10-30T09:17:32.312Z,101322.14
2017-10-30T09:19:59.919Z,101334.70
2017-10-30T09:22:27.561Z,101335.04
2017-10-30T09:24:55.179Z,101333.71
2017-10-30T09:27:22.780Z,101332.48
2017-10-30T09:29:50.405Z,101329.89
2017-10-30T09:32:18.026Z,101336.53
2017-10-30T09:34:45.682Z,101328.45
2017-10-30T09:37:13.326Z,101337.52
2017-10-30T09:39:40.983Z,101340.83
2017-10-30T09:42:08.636Z,101340.55
2017-10-30T09:44:36.221Z,101347.64
2017-10-30T09:47:03.849Z,101342.56
2017-10-30T09:49:31.447Z,101355.09
2017-10-30T09:51:59.030Z,101348.36
2017-10-30T09:54:26.742Z,101343.03
2017-10-30T09:56:54.636Z,101347.12
2017-10-30T09:59:22.285Z,101347.15
2017-10-30T10:01:49.881Z,101355.14
2017-10-30T10:04:17.519Z,101359.86
2017-10-30T10:06:45.181Z,101356.66
2017-10-30T10:09:13.138Z,101361.05
2017-10-30T10:11:40.755Z,101361.88
2017-10-30T10:14:08.682Z,101359.68
2017-10-30T10:16:36.338Z,101359.77
2017-10-30T10:19:03.925Z,101348.64
2017-10-30T10:21:31.570Z,101351.50
2017-10-30T10:23:59.144Z,101358.51
2017-10-30T10:26:27.102Z,101365.16
2017-10-30T10:28:55.630Z,101366.08
2017-10-30T10:31:23.279Z,101361.08
2017-10-30T10:33:50.906Z,101366.89
2017-10-30T10:36:18.556Z,101371.95
2017-10-30T10:38:46.215Z,101365.52
2017-10-30T10:41:13.879Z,101370.07
2017-10-30T10:43:41.541Z,101365.73
2017-10-30T10:46:09.203Z,101364.62
2017-10-30T10:48:36.807Z,101359.05
2017-10-30T10:51:04.433Z,101364.73
2017-10-30T10:53:32.087Z,101363.76
2017-10-30T10:55:59.686Z,101363.84
2017-10-30T10:58:27.325Z,101373.64
2017-10-30T11:00:54.964Z,101370.70
2017-10-30T11:03:22.536Z,101376.92
2017-10-30T11:05:50.168Z,101375.33
2017-10-30T11:08:18.194Z,101380.30
2017-10-30T11:10:45.822Z,101386.90
2017-10-30T11:13:13.422Z,101382.83
2017-10-30T11:15:41.007Z,101405.52
2017-10-30T11:18:08.619Z,101403.34
2017-10-30T11:20:36.509Z,101406.58
2017-10-30T11:23:04.481Z,101396.07
2017-10-30T11:25:32.343Z,101407.08
2017-10-30T11:28:00.209Z,101396.84
2017-10-30T11:30:27.853Z,101394.59
2017-10-30T11:32:55.455Z,101406.32
2017-10-30T11:35:23.094Z,101400.20
2017-10-30T11:37:50.760Z,101405.55
2017-10-30T11:40:18.734Z,101412.14
2017-10-30T11:42:46.429Z,101415.70
2017-10-30T11:45:14.029Z,101414.30
2017-10-30T11:47:41.657Z,101408.34
2017-10-30T11:50:09.288Z,101410.08
2017-10-30T11:52:36.892Z,101415.30
2017-10-30T11:55:04.512Z,101423.70
2017-10-30T11:57:32.114Z,101425.78
2017-10-30T11:59:59.775Z,101425.19
2017-10-30T12:02:27.369Z,101433.37
2017-10-30T12:04:54.993Z,101433.50
2017-10-30T12:07:22.609Z,101433.03
2017-10-30T12:09:50.203Z,101426.52
2017-10-30T12:12:18.163Z,101434.34
2017-10-30T12:14:45.898Z,101448.30
2017-10-30T12:17:13.494Z,101450.77
2017-10-30T12:19:41.115Z,101451.39
2017-10-30T12:22:08.717Z,101453.31
2017-10-30T12:24:36.340Z,101449.06
2017-10-30T12:27:03.957Z,101448.61
2017-10-30T12:29:31.624Z,101450.73
2017-10-30T12:31:59.258Z,101449.23
2017-10-30T12:34:26.839Z,101465.10
2017-10-30T12:36:54.469Z,101466.75
2017-10-30T12:39:22.091Z,101467.77
2017-10-30T12:41:49.732Z,101469.16
2017-10-30T12:44:17.623Z,101471.06
2017-10-30T12:46:45.236Z,101489.90
2017-10-30T12:49:13.202Z,101494.74
2017-10-30T12:51:41.175Z,101504.14
2017-10-30T12:54:08.790Z,101502.03
2017-10-30T12:56:36.434Z,101499.61
2017-10-30T12:59:04.361Z,101503.74
2017-10-30T13:01:31.985Z,101507.33
2017-10-30T13:03:59.592Z,101501.86
2017-10-30T13:06:27.181Z,101500.19
2017-10-30T13:08:54.845Z,101509.89
2017-10-30T13:11:22.779Z,101501.31
2017-10-30T13:13:50.409Z,101506.73
2017-10-30T13:16:18.031Z,101513.23
2017-10-30T13:18:45.747Z,101516.88
2017-10-30T13:21:13.396Z,101513.12
2017-10-30T13:23:41.018Z,101520.31
2017-10-30T13:26:08.678Z,101517.47
2017-10-30T13:28:36.276Z,101516.54
2017-10-30T13:31:03.897Z,101522.58
2017-10-30T13:33:31.565Z,101519.53
2017-10-30T13:35:59.160Z,101515.26
2017-10-30T13:38:26.821Z,101522.28
2017-10-30T13:40:54.466Z,101533.83
2017-10-30T13:43:25.206Z,101530.48
2017-10-30T13:45:52.938Z,101528.08
2017-10-30T13:48:21.077Z,101536.63
2017-10-30T13:50:48.710Z,101532.88
2017-10-30T13:53:16.336Z,101527.73
2017-10-30T13:55:43.999Z,101535.97
2017-10-30T13:58:11.636Z,101538.33
2017-10-30T14:00:39.219Z,101541.36
2017-10-30T14:03:06.883Z,101537.99
2017-10-30T14:05:34.486Z,101533.22
2017-10-30T14:08:02.108Z,101538.45
2017-10-30T14:10:29.773Z,101535.41
2017-10-30T14:12:57.453Z,101541.55
2017-10-30T14:15:25.109Z,101537.20
2017-10-30T14:17:52.766Z,101530.54
2017-10-30T14:20:20.430Z,101526.34
2017-10-30T14:22:48.953Z,101531.30
2017-10-30T14:25:16.557Z,101534.06
2017-10-30T14:27:44.541Z,101536.80
2017-10-30T14:30:12.304Z,101530.77
2017-10-30T14:32:39.971Z,101541.28
2017-10-30T14:35:08.349Z,101540.80
2017-10-30T14:37:35.992Z,101539.78
2017-10-30T14:40:08.259Z,101542.23
2017-10-30T14:42:36.148Z,101533.69
2017-10-30T14:45:03.787Z,101546.02
2017-10-30T14:47:31.450Z,101546.55
2017-10-30T14:49:59.935Z,101545.95
2017-10-30T14:52:27.592Z,101555.16
2017-10-30T14:54:55.297Z,101558.70
2017-10-30T14:57:26.211Z,101559.05
2017-10-30T14:59:54.120Z,101565.77
2017-10-30T15:02:21.744Z,101573.97
2017-10-30T15:04:49.386Z,101573.16
2017-10-30T15:07:17.288Z,101575.89
2017-10-30T15:09:44.946Z,101574.31
2017-10-30T15:12:12.582Z,101568.50
2017-10-30T15:14:40.181Z,101573.09
2017-10-30T15:17:08.058Z,101573.06
2017-10-30T15:19:36.013Z,101573.72
2017-10-30T15:22:03.701Z,101579.40
2017-10-30T15:24:32.358Z,101582.20
2017-10-30T15:26:59.965Z,101583.77
2017-10-30T15:29:27.604Z,101584.41
2017-10-30T15:31:55.221Z,101589.20
2017-10-30T15:34:22.817Z,101585.95
2017-10-30T15:36:50.440Z,101592.39
2017-10-30T15:39:18.116Z,101594.32
2017-10-30T15:41:46.214Z,101594.18
2017-10-30T15:44:13.835Z,101589.09
2017-10-30T15:46:41.430Z,101596.31
2017-10-30T15:49:09.058Z,101604.16
2017-10-30T15:51:36.710Z,101603.80
2017-10-30T15:54:04.370Z,101608.11
2017-10-30T15:59:05.941Z,101610.57
2017-10-30T16:01:34.981Z,101614.52
2017-10-30T16:04:02.653Z,101613.69
2017-10-30T16:06:30.618Z,101611.30
2017-10-30T16:08:58.240Z,101621.69
2017-10-30T16:11:25.887Z,101623.52
2017-10-30T16:13:53.504Z,101633.53
2017-10-30T16:16:21.109Z,101623.67
2017-10-30T16:18:49.695Z,101639.84
2017-10-30T16:21:17.661Z,101645.27
2017-10-30T16:23:45.323Z,101654.48
2017-10-30T16:26:13.277Z,101656.25
2017-10-30T16:28:40.861Z,101662.41
2017-10-30T16:31:08.516Z,101668.80
2017-10-30T16:33:36.177Z,101673.30
2017-10-30T16:36:03.823Z,101673.44
2017-10-30T16:38:31.481Z,101680.78
2017-10-30T16:40:59.077Z,101684.86
2017-10-30T16:43:26.692Z,101685.41
2017-10-30T16:45:54.282Z,101685.36
2017-10-30T16:48:21.921Z,101692.45
2017-10-30T16:50:49.521Z,101693.91
2017-10-30T16:53:17.148Z,101701.73
2017-10-30T16:55:44.771Z,101702.88
2017-10-30T16:58:12.477Z,101702.36
2017-10-30T17:00:40.138Z,101700.55
2017-10-30T17:03:07.758Z,101700.63
2017-10-30T17:05:35.658Z,101706.40
2017-10-30T17:08:03.320Z,101707.24
2017-10-30T17:10:30.977Z,101712.56
2017-10-30T17:12:58.662Z,101710.03
2017-10-30T17:15:26.272Z,101716.03
2017-10-30T17:17:53.884Z,101718.78
2017-10-30T17:20:21.544Z,101726.75
2017-10-30T17:22:49.157Z,101719.46
2017-10-30T17:25:17.096Z,101723.25
2017-10-30T17:27:44.804Z,101729.38
2017-10-30T17:30:12.412Z,101732.94
2017-10-30T17:32:40.030Z,101734.98
2017-10-30T17:35:07.636Z,101731.55
2017-10-30T17:37:35.292Z,101733.30
2017-10-30T17:40:02.911Z,101733.69
2017-10-30T17:42:30.818Z,101728.44
2017-10-30T17:44:59.568Z,101729.27
2017-10-30T17:47:27.228Z,101734.23
2017-10-30T17:49:54.942Z,101732.73
2017-10-30T17:52:22.549Z,101732.95
2017-10-30T17:54:50.152Z,101730.07
2017-10-30T17:57:17.782Z,101735.38
2017-10-30T17:59:45.376Z,101745.71
2017-10-30T18:02:14.073Z,101739.98
2017-10-30T18:04:41.677Z,101745.78
2017-10-30T18:07:09.280Z,101742.38
2017-10-30T18:09:38.045Z,101746.07
2017-10-30T18:12:05.646Z,101742.70
2017-10-30T18:14:33.754Z,101745.77
2017-10-30T18:17:02.425Z,101745.41
2017-10-30T18:19:30.065Z,101740.64
2017-10-30T18:22:03.350Z,101739.96
2017-10-30T18:24:31.233Z,101744.01
2017-10-30T18:27:00.808Z,101741.06
2017-10-30T18:29:28.431Z,101744.33
2017-10-30T18:31:57.624Z,101742.37
2017-10-30T18:34:26.061Z,101744.03
2017-10-30T18:36:53.723Z,101744.94
2017-10-30T18:39:21.432Z,101738.45
2017-10-30T18:41:49.093Z,101731.52
2017-10-30T18:44:16.709Z,101732.85
2017-10-30T18:46:44.369Z,101733.75
2017-10-30T18:49:12.080Z,101729.84
2017-10-30T18:51:39.717Z,101733.52
2017-10-30T18:54:07.397Z,101737.80
2017-10-30T18:56:35.016Z,101740.57
2017-10-30T18:59:02.601Z,101746.67
2017-10-30T19:01:30.281Z,101750.88
2017-10-30T19:03:59.256Z,101749.19
2017-10-30T19:06:26.857Z,101749.25
2017-10-30T19:08:54.472Z,101750.34
2017-10-30T19:11:22.050Z,101754.75
2017-10-30T19:13:50.020Z,101760.08
2017-10-30T19:16:17.629Z,101761.42
2017-10-30T19:18:45.242Z,101765.30
2017-10-30T19:21:12.882Z,101767.30
2017-10-30T19:23:40.597Z,101775.61
2017-10-30T19:26:08.229Z,101774.70
2017-10-30T19:28:36.092Z,101782.50
2017-10-30T19:31:03.679Z,101780.88
2017-10-30T19:33:31.293Z,101786.28
2017-10-30T19:35:58.878Z,101785.38
2017-10-30T19:38:26.535Z,101781.41
2017-10-30T19:40:54.136Z,101775.31
2017-10-30T19:43:21.736Z,101777.66
2017-10-30T19:45:49.385Z,101770.55
2017-10-30T19:48:16.996Z,101778.36
2017-10-30T19:50:44.953Z,101782.22
2017-10-30T19:53:12.556Z,101779.56
2017-10-30T19:55:40.168Z,101785.44
2017-10-30T19:58:08.156Z,101787.86
2017-10-30T20:00:35.774Z,101793.64
2017-10-30T20:03:03.792Z,101796.95
2017-10-30T20:05:37.157Z,101799.73
2017-10-30T20:10:37.306Z,101800.23
2017-10-30T20:13:04.972Z,101797.82
2017-10-30T20:15:32.570Z,101796.55
2017-10-30T20:18:00.324Z,101798.24
2017-10-30T20:20:27.942Z,101805.84
2017-10-30T20:22:55.654Z,101801.73
2017-10-30T20:25:23.271Z,101803.13
2017-10-30T20:27:50.917Z,101797.52
2017-10-30T20:30:18.593Z,101796.35
2017-10-30T20:32:46.290Z,101802.77
2017-10-30T20:35:14.255Z,101803.98
2017-10-30T20:37:41.877Z,101803.62
2017-10-30T20:40:09.481Z,101806.22
2017-10-30T20:42:37.096Z,101805.95
2017-10-30T20:45:05.013Z,101805.16
2017-10-30T20:47:32.640Z,101808.75
2017-10-30T20:50:00.327Z,101808.03
2017-10-30T20:52:27.951Z,101808.15
2017-10-30T20:54:56.786Z,101804.14
2017-10-30T20:57:24.398Z,101805.89
2017-10-30T20:59:52.060Z,101795.89
2017-10-30T21:02:19.654Z,101800.16
2017-10-30T21:04:47.281Z,101799.14
2017-10-30T21:07:14.941Z,101809.63
2017-10-30T21:09:42.548Z,101806.34
2017-10-30T21:12:10.236Z,101806.66
2017-10-30T21:14:38.529Z,101802.20
2017-10-30T21:17:06.152Z,101801.86
2017-10-30T21:19:33.853Z,101798.51
2017-10-30T21:22:01.527Z,101794.65
2017-10-30T21:24:29.200Z,101799.39
2017-10-30T21:26:57.065Z,101790.13
2017-10-30T21:29:24.921Z,101797.57
2017-10-30T21:31:52.583Z,101796.55
2017-10-30T21:34:20.425Z,101799.16
2017-10-30T21:36:48.062Z,101800.62
2017-10-30T21:39:15.673Z,101800.85
2017-10-30T21:41:43.285Z,101805.86
2017-10-30T21:44:10.903Z,101806.56
2017-10-30T21:46:38.534Z,101808.80
2017-10-30T21:49:06.221Z,101807.96
2017-10-30T21:51:33.820Z,101801.50
2017-10-30T21:54:01.438Z,101801.94
2017-10-30T21:56:29.102Z,101801.94
2017-10-30T21:58:56.762Z,101803.06
2017-10-30T22:01:24.427Z,101803.78
2017-10-30T22:03:52.025Z,101802.52
2017-10-30T22:06:19.648Z,101800.86
2017-10-30T22:08:48.332Z,101805.91
2017-10-30T22:11:16.006Z,101800.44
2017-10-30T22:13:43.669Z,101805.59
2017-10-30T22:16:11.318Z,101815.86
2017-10-30T22:18:38.904Z,101820.30
2017-10-30T22:21:06.538Z,101819.20
2017-10-30T22:23:34.120Z,101817.64
2017-10-30T22:26:01.769Z,101817.66
2017-10-30T22:28:29.351Z,101815.54
2017-10-30T22:30:57.284Z,101818.55
2017-10-30T22:33:24.949Z,101819.11
2017-10-30T22:35:52.554Z,101813.73
2017-10-30T22:38:21.962Z,101811.88
2017-10-30T22:40:49.571Z,101813.23
2017-10-30T22:43:17.169Z,101815.93
2017-10-30T22:45:45.111Z,101813.00
2017-10-30T22:48:12.986Z,101821.38
2017-10-30T22:50:40.616Z,101814.71
2017-10-30T22:53:08.217Z,101817.53
2017-10-30T22:55:35.868Z,101827.58
2017-10-30T22:58:03.734Z,101829.33
2017-10-30T23:00:31.352Z,101832.20
2017-10-30T23:02:59.261Z,101832.25
2017-10-30T23:05:26.884Z,101824.38
2017-10-30T23:07:54.473Z,101824.73
2017-10-30T23:10:22.459Z,101824.44
2017-10-30T23:12:50.096Z,101822.44
2017-10-30T23:15:17.731Z,101821.82
2017-10-30T23:17:45.650Z,101826.41
2017-10-30T23:20:13.237Z,101827.73
2017-10-30T23:22:40.851Z,101825.80
2017-10-30T23:25:08.544Z,101823.61
2017-10-30T23:27:36.407Z,101824.33
2017-10-30T23:30:04.052Z,101825.06
2017-10-30T23:32:31.663Z,101827.48
2017-10-30T23:34:59.266Z,101832.20
2017-10-30T23:37:26.909Z,101829.61
2017-10-30T23:39:54.494Z,101816.93
2017-10-30T23:42:22.128Z,101821.47
2017-10-30T23:44:50.050Z,101823.27
2017-10-30T23:47:17.651Z,101820.34
2017-10-30T23:49:45.295Z,101816.34
2017-10-30T23:52:12.899Z,101816.11
2017-10-30T23:54:40.545Z,101822.51
2017-10-30T23:57:08.174Z,101816.96
2017-10-30T23:59:35.789Z,101815.90
